FNMO

Namibe Airport

Namibe, Angola
METAR FNMO 151600Z 23013KT 9999 OVC011 19/16 Q1015
Observed Flight Rules
Aug-15 @ 16:00 UTC (14 hours ago) Marginal Visual Flight Rules
Wind Visibility Clouds
230° at 13 knots 10,000+ meters
  • Overcast at 1,100' AGL
Temperatures Readings
Current 19°C / 66°F
Dewpoint 16°C / 61°F
Humidity 83%
Altimeter 29.97" Hg
Pressure 1015 hPa
Elevation 64
METAR FNMO 151600Z 23013KT 9999 OVC011 19/16 Q1015
Observed Flight Rules
Aug-15 @ 16:00 UTC
(14 hours ago)
MVFR
Wind Visibility
230° at 13 knots 10,000+ meters
Clouds
  • Overcast at 1,100' AGL
Temperature Dewpoint
19°C / 66°F 16°C / 61°F
Humidity Altimeter Pressure
83% 29.97" Hg 1015 hPa